Time;durP1;ratioP1;P1;durP2;ratioP2;P2;SDS_P1;SDS_P2;PMS_P1;PMS_P2;Temp;Humidity;BMP_temperature;BMP_pressure;BME280_temperature;BME280_humidity;BME280_pressure;Samples;Min_cycle;Max_cycle;Signal;HPM_P1;HPM_P2
2023/12/26 00:01:48;;;;;;;4.80;1.20;;;;;;;7.14;63.52;97577.96;104914;1269;61237;-25
2023/12/26 00:04:16;;;;;;;6.90;1.60;;;;;;;7.02;63.86;97588.59;104876;1269;61042;-25
2023/12/26 00:06:46;;;;;;;3.00;0.90;;;;;;;7.02;63.80;97592.92;104890;1267;72024;-25
2023/12/26 00:09:15;;;;;;;4.00;1.20;;;;;;;6.81;64.56;97610.64;104931;1269;73049;-25
2023/12/26 00:11:43;;;;;;;4.90;1.20;;;;;;;6.74;65.11;97617.61;105621;1261;72672;-25
2023/12/26 00:14:12;;;;;;;2.40;1.10;;;;;;;6.57;65.30;97610.95;105560;1254;129054;-26
2023/12/26 00:16:41;;;;;;;1.50;0.90;;;;;;;6.52;65.48;97616.46;105709;1254;61166;-25
2023/12/26 00:19:08;;;;;;;6.00;1.70;;;;;;;6.54;65.49;97622.31;105673;1260;72315;-27
2023/12/26 00:29:14;;;;;;;4.90;1.70;;;;;;;7.21;62.90;97627.29;102925;1291;602315;-25
2023/12/26 00:31:41;;;;;;;2.90;0.80;;;;;;;7.01;63.24;97638.18;104877;1271;61199;-25
2023/12/26 00:34:09;;;;;;;3.20;1.10;;;;;;;6.90;63.57;97641.52;104804;1267;61126;-27
2023/12/26 00:36:37;;;;;;;3.10;0.90;;;;;;;6.76;64.41;97646.41;104822;1267;69664;-27
2023/12/26 00:39:05;;;;;;;5.00;1.10;;;;;;;6.69;64.75;97638.33;104832;1271;74319;-28
2023/12/26 00:41:35;;;;;;;1.80;0.50;;;;;;;6.61;65.51;97642.56;104840;1266;71220;-27
2023/12/26 00:44:02;;;;;;;3.00;1.30;;;;;;;6.48;66.57;97653.99;104735;1269;142433;-27
2023/12/26 00:52:43;;;;;;;4.00;1.30;;;;;;;7.19;65.19;97661.58;102748;1289;602760;-25
2023/12/26 00:55:11;;;;;;;3.30;1.20;;;;;;;6.96;66.61;97662.40;104890;1272;61107;-25
2023/12/26 00:57:39;;;;;;;7.30;1.10;;;;;;;6.80;67.40;97667.80;104987;1266;61126;-27
2023/12/26 01:00:08;;;;;;;4.00;0.90;;;;;;;6.65;68.59;97676.54;104916;1269;70967;-28
2023/12/26 01:02:36;;;;;;;5.00;1.30;;;;;;;6.59;69.18;97692.41;104868;1267;74307;-28
2023/12/26 01:05:04;;;;;;;3.10;1.70;;;;;;;6.32;69.42;97671.73;104787;1266;71359;-28
2023/12/26 01:07:32;;;;;;;2.60;1.40;;;;;;;6.24;69.90;97680.86;104751;1263;163572;-27
2023/12/26 01:10:02;;;;;;;4.00;1.30;;;;;;;6.55;69.07;97668.95;104811;1262;61013;-27
2023/12/26 01:12:30;;;;;;;3.10;1.60;;;;;;;6.75;68.01;97680.33;105083;1269;71970;-28
2023/12/26 01:14:57;;;;;;;5.60;1.20;;;;;;;6.70;68.35;97688.14;105170;1268;73197;-27
2023/12/26 01:25:05;;;;;;;3.90;1.60;;;;;;;6.06;71.28;97686.50;102883;1289;600211;-28
2023/12/26 01:27:33;;;;;;;4.20;1.30;;;;;;;6.34;70.28;97684.04;104844;1271;61174;-27
2023/12/26 01:30:02;;;;;;;2.50;1.10;;;;;;;6.57;69.55;97682.55;104857;1267;61124;-27
2023/12/26 01:32:31;;;;;;;10.70;1.70;;;;;;;6.51;69.68;97681.15;104890;1266;72247;-27
2023/12/26 01:34:58;;;;;;;6.40;1.40;;;;;;;6.36;70.41;97689.02;104837;1270;74317;-27
2023/12/26 01:37:26;;;;;;;2.40;1.20;;;;;;;6.26;70.93;97687.77;104872;1267;71465;-28
2023/12/26 01:39:54;;;;;;;2.10;1.00;;;;;;;6.09;71.84;97696.63;104993;1262;118373;-28
2023/12/26 01:42:22;;;;;;;2.90;1.00;;;;;;;6.00;72.37;97693.34;105050;1263;61222;-28
2023/12/26 01:44:50;;;;;;;2.30;0.90;;;;;;;6.35;71.28;97690.77;105179;1264;71027;-27
2023/12/26 01:47:19;;;;;;;3.80;1.40;;;;;;;6.48;70.79;97698.44;108788;1264;73216;-26
2023/12/26 01:49:46;;;;;;;4.80;1.40;;;;;;;6.46;71.08;97703.69;108756;1263;72705;-26
2023/12/26 01:52:14;;;;;;;3.10;1.00;;;;;;;6.30;72.00;97710.91;108691;1262;58929;-26
2023/12/26 01:54:41;;;;;;;3.80;1.20;;;;;;;6.08;73.38;97697.91;108720;1262;58790;-26
2023/12/26 01:57:09;;;;;;;4.10;0.90;;;;;;;6.07;74.10;97715.88;108808;1262;73059;-26
2023/12/26 01:59:36;;;;;;;4.30;0.70;;;;;;;6.14;74.57;97720.13;108909;1259;74307;-26
2023/12/26 02:02:05;;;;;;;3.70;1.30;;;;;;;6.61;73.33;97720.14;108971;1259;71319;-26
2023/12/26 02:04:33;;;;;;;4.60;1.00;;;;;;;6.71;73.00;97720.83;108958;1259;60101;-26
2023/12/26 02:07:01;;;;;;;2.30;1.10;;;;;;;6.66;73.03;97718.83;108818;1259;60032;-26
2023/12/26 02:09:29;;;;;;;3.90;0.90;;;;;;;6.52;73.67;97728.67;108856;1259;73103;-26
2023/12/26 02:11:57;;;;;;;3.00;1.50;;;;;;;6.49;73.68;97734.27;108897;1259;74763;-26
2023/12/26 02:14:24;;;;;;;2.70;1.20;;;;;;;6.25;73.82;97727.47;108889;1259;70212;-26
2023/12/26 02:16:52;;;;;;;1.90;0.80;;;;;;;6.35;73.10;97740.81;108934;1262;60864;-25
2023/12/26 02:19:20;;;;;;;3.70;1.60;;;;;;;6.80;70.72;97737.66;108885;1259;58836;-26
2023/12/26 02:21:48;;;;;;;3.80;1.20;;;;;;;6.80;69.86;97739.41;108970;1259;73081;-26
2023/12/26 02:24:15;;;;;;;2.50;1.10;;;;;;;6.75;69.85;97738.45;108933;1259;74308;-26
2023/12/26 02:26:45;;;;;;;3.80;1.20;;;;;;;6.54;70.16;97730.52;108965;1259;72713;-26
2023/12/26 02:29:13;;;;;;;1.90;0.80;;;;;;;6.42;70.39;97741.92;108870;1259;58834;-26
2023/12/26 02:31:40;;;;;;;6.20;1.60;;;;;;;6.26;70.63;97729.98;108992;1259;59219;-26
2023/12/26 02:34:08;;;;;;;3.60;1.20;;;;;;;6.25;70.13;97735.98;108803;1259;73035;-26
2023/12/26 02:36:35;;;;;;;3.20;1.20;;;;;;;6.14;69.75;97724.14;109449;1252;74314;-26
2023/12/26 02:39:03;;;;;;;4.80;1.40;;;;;;;6.29;69.29;97732.98;109463;1252;72639;-25
2023/12/26 02:41:30;;;;;;;3.20;1.20;;;;;;;6.66;67.83;97741.45;109467;1253;58850;-26
2023/12/26 02:43:58;;;;;;;3.10;1.00;;;;;;;6.74;66.94;97742.34;109398;1255;60016;-26
2023/12/26 02:46:25;;;;;;;5.40;1.40;;;;;;;6.54;67.35;97756.97;109401;1253;73090;-26
2023/12/26 02:48:53;;;;;;;4.90;1.20;;;;;;;6.33;66.97;97736.97;109381;1253;72715;-25
2023/12/26 02:51:20;;;;;;;2.10;1.00;;;;;;;6.27;66.90;97752.32;109376;1252;72414;-25
2023/12/26 02:53:48;;;;;;;5.30;1.20;;;;;;;6.07;67.15;97741.70;109358;1253;58838;-26
2023/12/26 02:56:16;;;;;;;4.40;1.20;;;;;;;6.00;67.57;97753.84;109426;1253;60031;-26
2023/12/26 02:58:43;;;;;;;3.40;1.20;;;;;;;5.90;67.74;97758.45;109427;1253;73016;-26
2023/12/26 03:01:10;;;;;;;5.60;1.20;;;;;;;5.75;67.79;97752.08;109510;1253;73560;-26
2023/12/26 03:03:38;;;;;;;5.10;1.10;;;;;;;5.78;67.87;97748.77;109548;1252;71724;-26
2023/12/26 03:06:07;;;;;;;4.60;1.40;;;;;;;5.71;68.05;97748.95;109490;1252;59545;-25
2023/12/26 03:08:35;;;;;;;2.30;1.20;;;;;;;6.15;66.71;97766.05;109496;1255;58779;-25
2023/12/26 03:11:02;;;;;;;4.50;1.30;;;;;;;6.40;65.91;97776.24;109484;1253;71722;-25
2023/12/26 03:13:30;;;;;;;3.30;1.30;;;;;;;6.46;66.08;97788.48;109500;1253;74309;-26
2023/12/26 03:15:57;;;;;;;5.70;2.00;;;;;;;6.33;66.80;97791.13;109387;1252;71085;-25
2023/12/26 03:18:25;;;;;;;8.70;1.50;;;;;;;6.22;67.81;97778.88;109432;1253;59054;-26
2023/12/26 03:20:52;;;;;;;2.10;0.90;;;;;;;6.18;68.70;97794.45;109544;1253;58781;-25
2023/12/26 03:23:20;;;;;;;3.10;0.90;;;;;;;6.01;69.62;97797.15;109401;1252;73050;-26
2023/12/26 03:25:48;;;;;;;4.00;1.30;;;;;;;5.90;70.17;97805.11;109371;1255;73556;-26
2023/12/26 03:28:16;;;;;;;1.80;1.10;;;;;;;5.82;70.85;97809.90;109384;1253;72789;-26
2023/12/26 03:30:44;;;;;;;2.10;0.90;;;;;;;6.26;69.72;97808.97;109371;1256;59307;-26
2023/12/26 03:33:11;;;;;;;5.80;1.50;;;;;;;6.56;68.08;97810.39;109485;1252;59953;-26
2023/12/26 03:35:39;;;;;;;1.90;0.90;;;;;;;6.55;67.67;97801.35;109508;1253;73137;-26
2023/12/26 03:38:08;;;;;;;2.70;1.00;;;;;;;6.46;67.53;97816.55;109414;1253;73521;-26
2023/12/26 03:40:36;;;;;;;4.10;1.40;;;;;;;6.46;67.83;97823.47;109304;1254;70498;-26
2023/12/26 03:43:03;;;;;;;8.10;1.10;;;;;;;6.30;68.06;97823.45;109297;1254;59408;-26
2023/12/26 03:45:31;;;;;;;1.50;0.80;;;;;;;5.98;68.45;97827.92;109296;1254;60038;-26
2023/12/26 03:47:58;;;;;;;4.80;1.00;;;;;;;5.81;68.54;97835.30;109217;1254;73030;-26
2023/12/26 03:50:26;;;;;;;4.40;1.30;;;;;;;5.68;68.78;97840.81;109372;1253;74496;-26
2023/12/26 03:52:54;;;;;;;4.80;1.30;;;;;;;5.60;69.03;97840.59;109266;1255;72654;-26
2023/12/26 03:55:22;;;;;;;4.40;1.50;;;;;;;5.56;68.51;97849.67;109274;1255;59789;-26
2023/12/26 03:57:49;;;;;;;1.80;0.80;;;;;;;5.94;67.33;97857.50;109445;1254;59122;-26
2023/12/26 04:00:17;;;;;;;3.10;1.00;;;;;;;5.95;66.73;97855.41;109397;1254;73025;-26
2023/12/26 04:02:44;;;;;;;4.00;1.30;;;;;;;5.91;66.68;97861.19;109306;1254;74302;-25
2023/12/26 04:05:13;;;;;;;4.50;1.80;;;;;;;5.76;67.14;97854.67;109306;1254;72652;-25
2023/12/26 04:07:41;;;;;;;4.90;1.30;;;;;;;5.58;67.57;97859.66;109276;1254;59321;-26
2023/12/26 04:10:08;;;;;;;4.30;1.10;;;;;;;5.48;67.94;97862.00;109307;1253;60011;-26
2023/12/26 04:12:36;;;;;;;4.70;1.50;;;;;;;5.32;68.40;97860.32;109216;1253;73048;-25
2023/12/26 04:15:04;;;;;;;4.50;1.30;;;;;;;5.22;68.80;97868.88;109310;1253;72600;-25
2023/12/26 04:17:32;;;;;;;5.90;1.30;;;;;;;5.19;68.97;97869.59;109158;1254;71415;-26
2023/12/26 04:20:00;;;;;;;2.70;0.70;;;;;;;5.41;68.65;97877.89;109405;1254;59259;-26
2023/12/26 04:22:28;;;;;;;3.30;1.20;;;;;;;5.86;67.17;97876.10;109413;1254;58730;-26
2023/12/26 04:24:56;;;;;;;4.00;1.20;;;;;;;5.88;66.83;97879.16;109316;1254;73061;-26
2023/12/26 04:27:23;;;;;;;3.70;1.30;;;;;;;5.77;67.37;97871.96;109462;1253;74405;-25
2023/12/26 04:29:53;;;;;;;3.90;1.50;;;;;;;5.56;68.43;97867.45;109294;1254;72620;-26
2023/12/26 04:32:23;;;;;;;4.40;1.40;;;;;;;5.36;69.30;97869.31;109194;1254;58826;-26
2023/12/26 04:34:51;;;;;;;6.20;1.40;;;;;;;5.17;70.37;97872.15;109206;1254;61168;-26
2023/12/26 04:37:18;;;;;;;5.50;1.40;;;;;;;5.03;70.93;97870.13;109393;1254;71820;-26
2023/12/26 04:39:46;;;;;;;2.50;1.00;;;;;;;4.97;71.44;97874.93;109247;1255;74307;-26
2023/12/26 04:42:13;;;;;;;3.80;1.10;;;;;;;5.24;70.87;97864.38;109219;1256;70222;-26
2023/12/26 04:44:41;;;;;;;2.70;1.00;;;;;;;5.64;69.56;97865.76;109086;1256;60066;-25
2023/12/26 04:47:08;;;;;;;4.40;1.70;;;;;;;5.81;68.62;97863.73;109256;1255;60083;-26
2023/12/26 04:49:36;;;;;;;3.60;1.30;;;;;;;5.68;69.10;97868.35;109229;1256;73031;-26
2023/12/26 04:52:04;;;;;;;3.80;0.90;;;;;;;5.52;69.81;97865.30;109148;1256;74353;-26
2023/12/26 04:54:32;;;;;;;2.10;0.80;;;;;;;5.40;70.28;97873.12;109173;1256;72669;-26
2023/12/26 04:56:59;;;;;;;1.60;1.00;;;;;;;5.25;70.93;97873.65;109210;1254;58910;-26
2023/12/26 04:59:27;;;;;;;7.20;1.40;;;;;;;5.15;71.47;97866.67;109392;1256;59993;-25
2023/12/26 05:01:54;;;;;;;6.30;1.40;;;;;;;5.27;71.39;97879.45;109098;1256;73225;-25
2023/12/26 05:04:22;;;;;;;2.60;1.10;;;;;;;5.68;69.77;97879.95;109320;1255;73329;-26
2023/12/26 05:06:50;;;;;;;4.90;1.00;;;;;;;5.91;68.73;97878.07;109185;1256;72686;-26
2023/12/26 05:09:17;;;;;;;6.60;1.40;;;;;;;5.77;69.22;97887.98;109186;1254;60045;-26
2023/12/26 05:11:45;;;;;;;2.70;0.90;;;;;;;5.71;69.32;97893.84;109355;1255;58773;-25
2023/12/26 05:14:12;;;;;;;4.50;1.40;;;;;;;5.63;69.65;97893.26;109256;1255;73081;-25
2023/12/26 05:16:40;;;;;;;3.20;1.50;;;;;;;5.56;69.75;97897.40;109366;1254;73167;-26
2023/12/26 05:19:12;;;;;;;2.40;1.30;;;;;;;5.49;69.78;97897.61;109104;1256;72616;-25
2023/12/26 05:21:39;;;;;;;4.00;0.90;;;;;;;5.32;70.64;97898.25;109211;1254;58851;-25
2023/12/26 05:24:07;;;;;;;4.30;1.20;;;;;;;5.53;70.42;97905.23;109175;1255;60039;-26
2023/12/26 05:26:42;;;;;;;3.40;1.00;;;;;;;6.03;68.74;97914.38;109226;1256;71957;-26
2023/12/26 05:29:10;;;;;;;5.40;0.90;;;;;;;6.10;68.26;97916.02;109101;1256;73354;-26
2023/12/26 05:31:38;;;;;;;3.80;1.50;;;;;;;6.15;68.02;97926.64;109087;1256;71270;-25
2023/12/26 05:34:10;;;;;;;3.10;1.10;;;;;;;6.05;68.77;97930.90;109180;1256;58836;-26
2023/12/26 05:36:38;;;;;;;2.00;0.90;;;;;;;6.00;68.95;97937.13;109232;1256;60058;-26
2023/12/26 05:39:06;;;;;;;6.60;1.30;;;;;;;5.91;69.21;97935.23;109154;1256;73827;-26
2023/12/26 05:41:34;;;;;;;2.20;1.20;;;;;;;5.90;69.65;97941.90;109129;1256;73311;-26
2023/12/26 05:44:02;;;;;;;6.20;1.50;;;;;;;5.87;69.84;97943.48;109149;1256;72687;-26
2023/12/26 05:46:30;;;;;;;3.60;1.20;;;;;;;5.87;70.21;97945.77;109131;1256;59612;-26
2023/12/26 05:48:59;;;;;;;2.70;0.80;;;;;;;6.38;68.56;97942.06;109185;1256;58736;-26
2023/12/26 05:51:27;;;;;;;2.10;0.70;;;;;;;6.70;66.33;97943.58;109157;1256;72965;-26
2023/12/26 05:53:54;;;;;;;3.80;1.10;;;;;;;6.77;65.96;97948.04;109098;1256;74284;-26
2023/12/26 05:56:22;;;;;;;7.00;1.10;;;;;;;6.74;66.08;97953.22;109149;1256;72683;-26
2023/12/26 05:58:49;;;;;;;5.10;1.60;;;;;;;6.67;66.26;97954.52;109310;1255;60057;-25
2023/12/26 06:01:17;;;;;;;3.70;1.00;;;;;;;6.61;67.00;97960.36;109199;1256;60004;-25
2023/12/26 06:03:45;;;;;;;2.50;1.00;;;;;;;6.54;67.51;97960.05;109311;1255;74030;-25
2023/12/26 06:06:12;;;;;;;5.70;1.60;;;;;;;6.42;68.60;97960.48;109095;1256;73568;-27
2023/12/26 06:08:41;;;;;;;7.00;2.20;;;;;;;6.34;68.95;97961.35;109276;1255;71499;-26
2023/12/26 06:11:08;;;;;;;4.40;1.10;;;;;;;6.46;69.62;97969.35;109160;1256;59543;-26
2023/12/26 06:13:36;;;;;;;1.70;0.80;;;;;;;6.98;68.48;97968.67;109097;1256;60064;-26
2023/12/26 06:16:04;;;;;;;1.30;0.70;;;;;;;7.29;67.79;97970.62;109175;1256;73945;-26
2023/12/26 06:18:33;;;;;;;3.60;1.20;;;;;;;7.24;68.08;97969.42;109185;1255;73059;-26
2023/12/26 06:21:01;;;;;;;3.30;1.20;;;;;;;7.15;68.55;97964.51;109091;1256;72804;-26
2023/12/26 06:23:28;;;;;;;6.20;1.80;;;;;;;6.91;69.44;97957.86;109144;1256;58950;-26
2023/12/26 06:25:56;;;;;;;3.80;1.40;;;;;;;6.79;69.67;97958.55;109092;1256;60034;-26
2023/12/26 06:28:24;;;;;;;5.10;1.30;;;;;;;6.56;69.95;97953.21;109194;1256;73935;-26
2023/12/26 06:30:51;;;;;;;2.90;0.90;;;;;;;6.42;69.99;97956.05;109167;1255;73012;-26
2023/12/26 06:33:19;;;;;;;3.50;1.20;;;;;;;6.31;70.36;97963.42;109155;1256;71908;-26
2023/12/26 06:35:49;;;;;;;2.90;0.90;;;;;;;6.57;69.67;97962.91;109161;1256;58754;-26
2023/12/26 06:38:17;;;;;;;3.20;0.90;;;;;;;7.13;67.75;97961.41;109196;1256;60036;-26
2023/12/26 06:40:44;;;;;;;7.80;1.00;;;;;;;7.16;66.66;97957.06;109060;1258;73812;-26
2023/12/26 06:43:14;;;;;;;5.10;1.70;;;;;;;7.10;66.59;97965.98;109031;1257;74330;-26
2023/12/26 06:45:41;;;;;;;3.50;1.40;;;;;;;6.95;66.53;97975.30;109011;1257;72566;-26
2023/12/26 06:48:09;;;;;;;4.00;1.10;;;;;;;6.71;66.97;97980.74;109106;1256;58890;-26
2023/12/26 06:50:37;;;;;;;4.90;1.30;;;;;;;6.48;67.97;97990.41;109026;1257;60044;-26
2023/12/26 06:53:04;;;;;;;6.00;2.50;;;;;;;6.44;68.27;97991.09;109021;1257;73842;-26
2023/12/26 06:55:32;;;;;;;4.10;1.20;;;;;;;6.35;68.84;97995.88;109078;1257;74303;-26
2023/12/26 06:57:59;;;;;;;5.50;1.70;;;;;;;6.28;69.48;97996.32;109027;1257;71765;-26
2023/12/26 07:00:27;;;;;;;5.20;1.00;;;;;;;6.22;70.12;97996.11;108981;1257;60715;-26
2023/12/26 07:02:55;;;;;;;6.10;1.30;;;;;;;6.70;69.04;97999.79;109201;1257;58790;-26
2023/12/26 07:05:24;;;;;;;3.30;1.30;;;;;;;7.18;67.14;97998.97;109029;1257;72545;-26
2023/12/26 07:07:52;;;;;;;5.00;1.30;;;;;;;7.26;66.61;97995.33;109037;1257;76561;-25
2023/12/26 07:10:19;;;;;;;3.90;1.30;;;;;;;7.23;66.61;98002.02;109023;1257;74163;-26
2023/12/26 07:12:47;;;;;;;4.50;1.30;;;;;;;7.10;67.09;98000.02;109001;1258;60098;-26
2023/12/26 07:15:17;;;;;;;4.80;1.80;;;;;;;6.99;67.47;98004.52;109163;1259;60060;-25
2023/12/26 07:17:45;;;;;;;4.40;1.30;;;;;;;6.87;67.98;98009.84;109036;1258;73879;-26
2023/12/26 07:20:13;;;;;;;2.80;1.20;;;;;;;6.78;68.61;98013.33;109041;1257;74463;-25
2023/12/26 07:22:40;;;;;;;4.50;1.20;;;;;;;6.75;68.69;98015.48;109013;1257;72652;-26
2023/12/26 07:25:08;;;;;;;3.60;1.30;;;;;;;6.70;68.84;98018.08;109045;1256;58811;-26
2023/12/26 07:27:36;;;;;;;2.20;1.10;;;;;;;6.64;69.06;98016.81;109054;1259;58851;-26
2023/12/26 07:30:04;;;;;;;4.10;1.10;;;;;;;6.63;69.05;98011.11;109044;1259;73859;-26
2023/12/26 07:32:31;;;;;;;6.00;1.40;;;;;;;7.21;68.89;98006.33;109050;1257;74343;-26
2023/12/26 07:34:59;;;;;;;5.60;1.50;;;;;;;7.89;66.84;98011.66;109178;1257;72670;-25
2023/12/26 07:37:27;;;;;;;5.80;1.20;;;;;;;8.14;65.93;98016.31;109039;1257;60085;-26
2023/12/26 07:39:54;;;;;;;3.20;1.50;;;;;;;8.13;66.06;98022.67;109176;1258;58745;-26
2023/12/26 07:42:22;;;;;;;5.00;1.90;;;;;;;8.00;66.17;98016.56;109091;1257;73960;-26
2023/12/26 07:44:50;;;;;;;5.40;2.00;;;;;;;7.79;66.59;98012.81;109012;1257;74300;-26
2023/12/26 07:47:17;;;;;;;4.90;1.80;;;;;;;7.73;66.75;98022.10;109086;1257;72632;-26
2023/12/26 07:49:45;;;;;;;5.50;1.70;;;;;;;7.67;67.15;98025.81;108976;1257;60083;-26
2023/12/26 07:52:13;;;;;;;3.30;1.60;;;;;;;7.66;67.19;98033.94;109073;1257;58749;-26
2023/12/26 07:54:40;;;;;;;8.50;2.00;;;;;;;7.57;67.86;98029.33;109015;1258;72641;-26
2023/12/26 07:57:08;;;;;;;6.40;1.60;;;;;;;7.66;68.57;98027.59;108954;1257;73174;-25
2023/12/26 07:59:35;;;;;;;6.70;2.60;;;;;;;7.76;67.69;98027.41;108937;1257;72708;-26
2023/12/26 08:02:03;;;;;;;7.10;2.80;;;;;;;7.61;67.92;98022.81;109083;1257;60079;-25
2023/12/26 08:04:30;;;;;;;6.50;2.70;;;;;;;7.49;68.27;98024.48;109097;1260;60013;-25
2023/12/26 08:06:58;;;;;;;5.80;2.20;;;;;;;7.51;68.42;98024.90;109030;1257;73868;-26
2023/12/26 08:09:26;;;;;;;11.70;2.90;;;;;;;7.62;68.37;98022.61;109049;1258;74515;-26
2023/12/26 08:11:54;;;;;;;10.90;2.60;;;;;;;7.68;68.44;98023.64;108896;1257;72694;-25
2023/12/26 08:14:21;;;;;;;5.40;2.10;;;;;;;7.86;68.37;98023.12;108928;1258;60087;-25
2023/12/26 08:16:49;;;;;;;6.20;2.10;;;;;;;7.97;68.03;98017.65;109012;1257;59000;-25
2023/12/26 08:19:17;;;;;;;7.90;3.10;;;;;;;8.26;67.65;98014.30;109103;1258;73866;-26
2023/12/26 08:21:47;;;;;;;5.20;2.20;;;;;;;8.41;66.92;98018.50;109079;1257;74578;-26
2023/12/26 08:24:15;;;;;;;6.60;3.10;;;;;;;8.42;67.13;98016.19;109057;1257;72665;-26
2023/12/26 08:26:43;;;;;;;6.70;2.30;;;;;;;8.31;67.59;98013.48;109075;1257;59162;-26
2023/12/26 08:29:10;;;;;;;5.30;3.00;;;;;;;8.37;67.57;98011.95;109014;1257;60143;-26
2023/12/26 08:31:38;;;;;;;7.20;3.20;;;;;;;8.46;67.62;98006.45;109081;1257;73831;-26
2023/12/26 08:34:06;;;;;;;7.10;2.50;;;;;;;8.46;67.85;97998.82;109087;1257;74093;-26
2023/12/26 08:36:33;;;;;;;5.60;2.70;;;;;;;8.37;68.40;97989.45;109002;1259;71623;-26
2023/12/26 08:39:01;;;;;;;2.80;1.60;;;;;;;8.43;68.64;97986.33;109071;1257;60080;-26
2023/12/26 08:41:30;;;;;;;4.40;2.30;;;;;;;8.63;68.03;97984.96;109001;1259;60031;-26
2023/12/26 08:43:59;;;;;;;5.60;2.10;;;;;;;8.60;68.34;97982.80;109015;1259;73907;-25
2023/12/26 08:46:29;;;;;;;5.40;2.30;;;;;;;8.72;68.29;97986.95;109013;1258;73051;-26
2023/12/26 08:48:59;;;;;;;3.10;1.90;;;;;;;8.99;67.40;97993.98;109031;1257;71059;-26
2023/12/26 08:51:29;;;;;;;4.00;2.00;;;;;;;9.13;67.19;98000.12;108938;1259;58771;-26
2023/12/26 08:53:59;;;;;;;4.40;2.00;;;;;;;9.21;66.77;98009.29;108946;1259;61197;-26
2023/12/26 08:56:28;;;;;;;4.50;2.30;;;;;;;9.20;67.06;98006.58;109051;1259;72676;-25
2023/12/26 08:58:59;;;;;;;3.60;2.10;;;;;;;9.08;67.03;98009.95;108959;1259;74389;-26
2023/12/26 09:01:29;;;;;;;5.50;2.00;;;;;;;8.79;67.88;98012.56;109002;1258;72795;-26
2023/12/26 09:04:00;;;;;;;6.00;2.10;;;;;;;8.69;68.49;98015.52;108972;1263;58825;-26
2023/12/26 09:06:31;;;;;;;3.90;2.00;;;;;;;8.53;69.63;98014.52;108944;1259;59331;-25
2023/12/26 09:09:02;;;;;;;3.50;1.90;;;;;;;8.33;70.91;98013.33;109024;1259;73965;-25
2023/12/26 09:11:32;;;;;;;8.10;2.30;;;;;;;8.90;69.57;98007.77;109018;1259;74378;-26
2023/12/26 09:14:02;;;;;;;5.60;1.60;;;;;;;9.10;68.70;97996.21;109033;1259;72728;-26
2023/12/26 09:16:32;;;;;;;3.50;2.00;;;;;;;8.87;69.39;97985.92;108995;1260;58834;-26
2023/12/26 09:19:02;;;;;;;2.90;1.70;;;;;;;8.77;69.85;97972.62;108995;1259;58592;-26
2023/12/26 09:21:34;;;;;;;4.90;1.80;;;;;;;8.69;70.41;97971.42;108809;1259;72254;-26
2023/12/26 09:24:05;;;;;;;4.50;1.90;;;;;;;8.57;71.05;97974.40;108953;1258;74913;-26
2023/12/26 09:26:35;;;;;;;4.40;2.70;;;;;;;8.43;71.46;97970.88;108937;1259;72141;-26
2023/12/26 09:29:05;;;;;;;6.30;3.20;;;;;;;8.41;71.74;97976.84;108895;1259;62254;-26
2023/12/26 09:31:36;;;;;;;5.80;2.40;;;;;;;8.91;70.51;97971.02;109009;1259;60727;-26
2023/12/26 09:34:08;;;;;;;5.10;1.70;;;;;;;9.26;69.12;97961.17;108962;1258;76836;-26
2023/12/26 09:36:37;;;;;;;2.50;1.60;;;;;;;9.46;68.10;97954.53;108954;1258;74311;-26
2023/12/26 09:39:08;;;;;;;2.80;1.60;;;;;;;9.45;68.14;97951.28;108944;1259;70422;-25
2023/12/26 09:49:09;;;;;;;2.50;1.40;;;;;;;8.84;70.80;97948.73;102633;1296;599633;-25
2023/12/26 09:51:44;;;;;;;3.20;1.50;;;;;;;8.78;71.18;97954.84;104768;1270;61189;-25
2023/12/26 09:54:15;;;;;;;2.80;1.00;;;;;;;8.69;71.73;97949.41;104722;1273;61138;-25
2023/12/26 09:56:43;;;;;;;2.60;1.10;;;;;;;9.31;70.68;97946.89;104590;1267;72083;-25
2023/12/26 09:59:10;;;;;;;2.30;1.40;;;;;;;9.50;69.94;97942.30;104999;1270;76743;-24
2023/12/26 10:01:38;;;;;;;2.30;1.30;;;;;;;9.68;69.33;97938.93;104930;1264;144846;-25
2023/12/26 10:04:06;;;;;;;3.70;1.60;;;;;;;9.49;69.78;97939.02;105127;1261;62366;-25
2023/12/26 10:14:11;;;;;;;1.60;0.80;;;;;;;9.01;74.26;97926.76;102575;1291;602251;-25
2023/12/26 10:16:39;;;;;;;2.20;1.00;;;;;;;9.57;72.93;97921.29;104813;1266;61278;-25
2023/12/26 10:19:12;;;;;;;1.00;0.90;;;;;;;9.96;71.79;97923.97;104760;1274;61188;-25
2023/12/26 10:21:40;;;;;;;2.40;1.20;;;;;;;9.84;72.57;97918.52;104819;1266;72703;-25
2023/12/26 10:24:11;;;;;;;5.50;1.40;;;;;;;9.78;72.57;97912.51;104819;1266;74296;-25
2023/12/26 10:26:39;;;;;;;2.50;1.20;;;;;;;9.44;74.26;97907.39;104268;1270;716792;-28
2023/12/26 10:29:11;;;;;;;1.00;0.60;;;;;;;9.27;75.00;97901.75;105707;1253;61059;-25
2023/12/26 10:31:43;;;;;;;1.40;0.70;;;;;;;8.98;77.02;97903.24;105567;1253;61115;-26
2023/12/26 10:34:15;;;;;;;3.60;1.20;;;;;;;9.32;76.51;97899.69;105665;1253;74528;-27
2023/12/26 10:36:44;;;;;;;2.50;1.30;;;;;;;9.66;75.42;97898.06;105701;1261;73217;-26
2023/12/26 10:39:12;;;;;;;1.80;1.20;;;;;;;9.71;75.16;97893.04;105700;1253;71429;-26
2023/12/26 10:41:47;;;;;;;2.90;1.20;;;;;;;9.66;74.49;97886.63;105799;1255;61150;-26
2023/12/26 10:44:18;;;;;;;2.60;1.00;;;;;;;9.24;77.40;97882.94;105462;1253;61200;-26
2023/12/26 10:46:47;;;;;;;1.70;1.00;;;;;;;9.01;78.82;97881.05;105741;1253;74548;-26
2023/12/26 10:49:24;;;;;;;1.40;0.90;;;;;;;9.35;78.29;97870.44;105777;1259;75537;-26
2023/12/26 10:51:52;;;;;;;3.40;1.40;;;;;;;9.45;78.43;97869.20;105541;1253;71255;-26
2023/12/26 10:54:24;;;;;;;2.20;1.50;;;;;;;9.48;78.02;97872.02;105727;1256;61072;-26
2023/12/26 10:56:52;;;;;;;2.40;1.40;;;;;;;9.26;78.72;97865.50;105570;1253;61123;-26
2023/12/26 10:59:21;;;;;;;2.10;1.20;;;;;;;9.07;80.07;97867.77;105669;1259;73005;-26
2023/12/26 11:01:48;;;;;;;2.10;1.30;;;;;;;9.07;81.41;97871.73;105723;1253;76622;-26
2023/12/26 11:04:18;;;;;;;1.60;1.00;;;;;;;9.56;79.28;97867.81;105681;1257;72316;-28
2023/12/26 11:06:45;;;;;;;2.00;1.20;;;;;;;9.69;78.49;97867.26;105729;1253;61094;-27
2023/12/26 11:09:13;;;;;;;1.60;1.10;;;;;;;9.35;80.29;97863.16;105755;1253;61045;-27
2023/12/26 11:11:41;;;;;;;0.70;0.60;;;;;;;8.94;82.73;97863.90;105728;1253;73105;-28
2023/12/26 11:14:09;;;;;;;1.60;1.20;;;;;;;9.12;83.05;97868.08;105718;1260;75557;-27
2023/12/26 11:16:36;;;;;;;1.00;0.90;;;;;;;9.34;81.94;97867.98;105632;1253;71508;-28
2023/12/26 11:19:04;;;;;;;2.00;1.00;;;;;;;9.38;81.52;97865.36;105783;1254;62068;-27
2023/12/26 11:21:32;;;;;;;1.80;1.00;;;;;;;9.34;81.13;97863.09;105554;1259;61175;-27
2023/12/26 11:24:00;;;;;;;0.80;0.70;;;;;;;8.84;83.94;97859.12;105552;1261;72035;-27
2023/12/26 11:26:28;;;;;;;1.70;1.20;;;;;;;8.96;84.81;97860.56;105616;1253;74710;-27
2023/12/26 11:28:55;;;;;;;2.20;1.10;;;;;;;9.32;83.07;97858.61;105570;1256;74752;-26
2023/12/26 11:31:23;;;;;;;2.00;1.50;;;;;;;9.18;83.34;97858.11;105480;1253;61199;-28
2023/12/26 11:33:51;;;;;;;4.20;1.60;;;;;;;8.95;84.41;97853.95;105630;1253;61015;-27
2023/12/26 11:36:19;;;;;;;3.10;1.60;;;;;;;9.09;84.69;97847.39;105576;1259;74112;-27
2023/12/26 11:38:46;;;;;;;3.20;1.80;;;;;;;9.56;82.69;97835.20;105448;1253;74376;-27
2023/12/26 11:41:14;;;;;;;1.70;1.40;;;;;;;9.38;82.53;97827.04;105562;1256;73799;-27
2023/12/26 11:43:42;;;;;;;3.00;2.10;;;;;;;8.90;85.08;97821.17;105648;1260;61203;-28
2023/12/26 11:46:09;;;;;;;2.60;1.50;;;;;;;9.00;84.59;97824.05;105656;1255;61574;-28
2023/12/26 11:48:37;;;;;;;3.30;1.90;;;;;;;9.12;84.06;97822.42;105659;1254;73261;-28
2023/12/26 11:51:05;;;;;;;2.50;1.60;;;;;;;9.30;83.17;97822.61;105670;1262;76735;-28
2023/12/26 11:53:33;;;;;;;2.50;1.70;;;;;;;9.24;83.43;97812.13;105520;1256;72662;-27
2023/12/26 11:56:00;;;;;;;4.50;1.80;;;;;;;9.19;83.02;97806.52;105571;1255;61168;-27
2023/12/26 12:06:15;;;;;;;2.80;1.90;;;;;;;9.25;82.85;97796.26;102646;1290;600895;-29
2023/12/26 12:09:03;;;;;;;2.90;1.30;;;;;;;9.14;83.58;97794.92;104609;1266;61032;-30
2023/12/26 12:11:31;;;;;;;2.20;1.50;;;;;;;9.36;82.72;97790.38;104839;1271;62767;-29
2023/12/26 12:13:59;;;;;;;1.90;1.20;;;;;;;9.59;81.60;97787.45;104866;1270;74180;-29
2023/12/26 12:24:06;;;;;;;2.50;1.70;;;;;;;9.44;83.59;97780.95;103464;1286;599965;-27
2023/12/26 12:27:03;;;;;;;2.80;2.40;;;;;;;9.20;84.34;97770.05;104998;1267;61158;-26
2023/12/26 12:29:59;;;;;;;2.60;1.80;;;;;;;9.04;85.21;97759.28;104987;1265;62793;-28
2023/12/26 12:32:32;;;;;;;2.90;2.00;;;;;;;9.20;85.12;97755.21;104867;1272;73752;-27